createdAt,value
2023-04-26T00:00:35.620Z,93.01
2023-04-26T00:01:35.114Z,93.12
2023-04-26T00:02:35.360Z,93.43
2023-04-26T00:03:35.543Z,93.01
2023-04-26T00:04:36.694Z,93.43
2023-04-26T00:05:35.839Z,92.91
2023-04-26T00:06:35.891Z,93.01
2023-04-26T00:07:36.610Z,93.43
2023-04-26T00:08:36.275Z,93.43
2023-04-26T00:09:36.427Z,93.33
2023-04-26T00:10:36.571Z,93.43
2023-04-26T00:11:38.070Z,93.54
2023-04-26T00:12:38.582Z,94.06
2023-04-26T00:13:38.059Z,93.43
2023-04-26T00:14:37.320Z,93.54
2023-04-26T00:15:37.452Z,94.10
2023-04-26T00:16:38.157Z,94.37
2023-04-26T00:17:38.649Z,93.68
2023-04-26T00:18:38.121Z,93.68
2023-04-26T00:19:39.175Z,93.68
2023-04-26T00:20:39.569Z,93.54
2023-04-26T00:21:41.087Z,93.48
2023-04-26T00:22:38.584Z,93.99
2023-04-26T00:23:39.623Z,93.79
2023-04-26T00:24:38.865Z,93.79
2023-04-26T00:25:40.078Z,93.79
2023-04-26T00:26:40.113Z,93.58
2023-04-26T00:27:40.573Z,93.62
2023-04-26T00:28:39.666Z,93.99
2023-04-26T00:29:39.797Z,94.41
2023-04-26T00:30:39.923Z,94.31
2023-04-26T00:31:40.670Z,94.20
2023-04-26T00:32:40.245Z,94.31
2023-04-26T00:33:40.312Z,94.31
2023-04-26T00:34:41.117Z,93.89
2023-04-26T00:35:40.613Z,94.31
2023-04-26T00:36:40.770Z,94.20
2023-04-26T00:37:41.086Z,93.89
2023-04-26T00:38:41.113Z,94.10
2023-04-26T00:39:41.217Z,94.41
2023-04-26T00:40:41.374Z,94.10
2023-04-26T00:41:42.113Z,94.51
2023-04-26T00:42:42.578Z,94.62
2023-04-26T00:43:41.950Z,93.99
2023-04-26T00:44:42.617Z,94.41
2023-04-26T00:45:43.099Z,93.89
2023-04-26T00:46:42.451Z,93.68
2023-04-26T00:47:43.085Z,93.58
2023-04-26T00:48:43.577Z,93.89
2023-04-26T00:49:43.964Z,94.41
2023-04-26T00:50:42.982Z,93.68
2023-04-26T00:51:45.097Z,94.20
2023-04-26T00:52:43.665Z,94.10
2023-04-26T00:53:44.119Z,93.48
2023-04-26T00:54:44.644Z,93.68
2023-04-26T00:55:43.922Z,94.41
2023-04-26T00:56:44.091Z,93.73
2023-04-26T00:57:44.254Z,94.14
2023-04-26T00:58:44.428Z,94.45
2023-04-26T00:59:45.128Z,94.04
2023-04-26T01:00:44.828Z,94.35
2023-04-26T01:01:45.580Z,94.56
2023-04-26T01:02:46.237Z,94.35
2023-04-26T01:03:45.502Z,94.35
2023-04-26T01:04:47.574Z,94.35
2023-04-26T01:05:47.579Z,94.45
2023-04-26T01:06:45.857Z,94.14
2023-04-26T01:07:46.970Z,94.35
2023-04-26T01:08:47.175Z,94.45
2023-04-26T01:09:47.560Z,94.60
2023-04-26T01:10:47.142Z,94.56
2023-04-26T01:11:47.144Z,94.92
2023-04-26T01:12:46.967Z,95.33
2023-04-26T01:13:48.123Z,95.23
2023-04-26T01:14:47.408Z,95.54
2023-04-26T01:15:48.128Z,95.43
2023-04-26T01:16:48.858Z,94.87
2023-04-26T01:17:47.974Z,95.43
2023-04-26T01:18:48.128Z,94.92
2023-04-26T01:19:48.624Z,95.33
2023-04-26T01:20:49.119Z,95.75
2023-04-26T01:21:49.619Z,95.58
2023-04-26T01:22:50.584Z,95.64
2023-04-26T01:23:49.217Z,95.64
2023-04-26T01:24:49.627Z,96.00
2023-04-26T01:25:49.553Z,96.00
2023-04-26T01:26:50.620Z,95.68
2023-04-26T01:27:49.856Z,95.17
2023-04-26T01:28:50.177Z,95.10
2023-04-26T01:29:50.635Z,95.62
2023-04-26T01:30:50.430Z,95.10
2023-04-26T01:31:50.631Z,95.10
2023-04-26T01:32:52.624Z,95.68
2023-04-26T01:33:50.874Z,95.94
2023-04-26T01:34:52.581Z,95.73
2023-04-26T01:35:51.213Z,96.46
2023-04-26T01:36:51.378Z,96.36
2023-04-26T01:37:51.534Z,96.46
2023-04-26T01:38:52.962Z,96.77
2023-04-26T01:39:51.820Z,97.09
2023-04-26T01:40:52.647Z,96.98
2023-04-26T01:41:52.196Z,96.88
2023-04-26T01:42:52.390Z,96.36
2023-04-26T01:43:52.561Z,96.88
2023-04-26T01:44:53.619Z,96.98
2023-04-26T01:45:52.926Z,97.34
2023-04-26T01:46:53.102Z,96.98
2023-04-26T01:47:54.198Z,96.98
2023-04-26T01:48:53.613Z,96.92
2023-04-26T01:49:53.554Z,96.82
2023-04-26T01:50:53.698Z,97.24
2023-04-26T01:51:53.877Z,97.03
2023-04-26T01:52:54.059Z,97.03
2023-04-26T01:53:54.223Z,97.03
2023-04-26T01:54:54.390Z,96.92
2023-04-26T01:55:55.126Z,96.82
2023-04-26T01:56:56.597Z,97.13
2023-04-26T01:57:56.024Z,96.82
2023-04-26T01:58:55.159Z,97.17
2023-04-26T01:59:57.145Z,96.92
2023-04-26T02:00:56.084Z,97.03
2023-04-26T02:01:56.682Z,97.34
2023-04-26T02:02:57.723Z,97.65
2023-04-26T02:03:56.128Z,97.75
2023-04-26T02:04:57.184Z,97.44
2023-04-26T02:05:56.400Z,97.75
2023-04-26T02:06:57.091Z,97.55
2023-04-26T02:07:56.734Z,97.65
2023-04-26T02:08:57.600Z,97.55
2023-04-26T02:09:57.086Z,97.86
2023-04-26T02:10:58.119Z,97.97
2023-04-26T02:11:58.089Z,97.55
2023-04-26T02:12:57.612Z,97.65
2023-04-26T02:13:59.596Z,97.80
2023-04-26T02:14:58.636Z,97.07
2023-04-26T02:15:58.190Z,97.80
2023-04-26T02:16:59.133Z,97.28
2023-04-26T02:17:58.478Z,98.01
2023-04-26T02:19:00.588Z,97.70
2023-04-26T02:19:58.777Z,97.80
2023-04-26T02:20:59.635Z,97.91
2023-04-26T02:21:59.178Z,98.22
2023-04-26T02:23:00.153Z,98.43
2023-04-26T02:24:01.097Z,98.43
2023-04-26T02:24:59.683Z,98.01
2023-04-26T02:25:59.853Z,97.49
2023-04-26T02:27:00.600Z,97.59
2023-04-26T02:28:00.261Z,98.22
2023-04-26T02:29:00.806Z,98.74
2023-04-26T02:30:00.574Z,98.63
2023-04-26T02:31:00.763Z,98.53
2023-04-26T02:32:01.155Z,98.53
2023-04-26T02:33:01.726Z,98.63
2023-04-26T02:34:02.092Z,98.32
2023-04-26T02:35:01.494Z,98.11
2023-04-26T02:36:01.692Z,98.43
2023-04-26T02:37:02.671Z,98.74
2023-04-26T02:38:02.647Z,98.95
2023-04-26T02:39:03.133Z,98.43
2023-04-26T02:40:02.529Z,98.43
2023-04-26T02:41:02.742Z,99.26
2023-04-26T02:42:02.921Z,98.79
2023-04-26T02:43:03.095Z,99.41
2023-04-26T02:44:03.261Z,98.58
2023-04-26T02:45:04.089Z,98.37
2023-04-26T02:46:05.592Z,98.16
2023-04-26T02:47:04.203Z,98.58
2023-04-26T02:48:04.123Z,99.20
2023-04-26T02:49:05.150Z,99.16
2023-04-26T02:50:05.153Z,99.05
2023-04-26T02:51:04.549Z,99.05
2023-04-26T02:52:06.099Z,99.26
2023-04-26T02:53:05.658Z,99.10
2023-04-26T02:54:07.024Z,99.05
2023-04-26T02:55:06.278Z,99.20
2023-04-26T02:56:05.483Z,98.89
2023-04-26T02:57:06.096Z,99.20
2023-04-26T02:58:06.661Z,99.20
2023-04-26T02:59:06.632Z,98.89
2023-04-26T03:00:07.180Z,99.10
2023-04-26T03:01:06.416Z,99.20
2023-04-26T03:02:08.010Z,99.10
2023-04-26T03:03:06.884Z,99.20
2023-04-26T03:04:07.007Z,99.73
2023-04-26T03:05:07.203Z,99.52
2023-04-26T03:06:07.410Z,99.52
2023-04-26T03:07:08.140Z,99.41
2023-04-26T03:08:08.658Z,99.73
2023-04-26T03:09:08.482Z,99.52
2023-04-26T03:10:08.147Z,99.31
2023-04-26T03:11:09.202Z,98.89
2023-04-26T03:12:08.476Z,99.10
2023-04-26T03:13:08.675Z,99.66
2023-04-26T03:14:09.600Z,99.62
2023-04-26T03:15:09.603Z,99.52
2023-04-26T03:16:10.153Z,99.73
2023-04-26T03:17:10.168Z,99.20
2023-04-26T03:18:09.505Z,99.52
2023-04-26T03:19:09.601Z,99.10
2023-04-26T03:20:10.600Z,99.20
2023-04-26T03:21:10.635Z,99.10
2023-04-26T03:22:10.169Z,99.31
2023-04-26T03:23:10.656Z,99.10
2023-04-26T03:24:10.554Z,99.56
2023-04-26T03:25:12.488Z,99.20
2023-04-26T03:26:11.600Z,99.31
2023-04-26T03:27:11.073Z,99.52
2023-04-26T03:28:11.127Z,99.31
2023-04-26T03:29:11.292Z,99.35
2023-04-26T03:30:11.690Z,99.56
2023-04-26T03:31:11.677Z,99.66
2023-04-26T03:32:12.715Z,99.25
2023-04-26T03:33:12.710Z,99.04
2023-04-26T03:34:12.201Z,99.35
2023-04-26T03:35:12.664Z,99.46
2023-04-26T03:36:13.033Z,99.88
2023-04-26T03:37:15.119Z,99.99
2023-04-26T03:38:12.947Z,99.93
2023-04-26T03:39:13.166Z,99.99
2023-04-26T03:40:14.158Z,99.99
2023-04-26T03:41:14.126Z,99.99
2023-04-26T03:42:13.688Z,99.99
2023-04-26T03:43:14.674Z,99.99
2023-04-26T03:44:14.055Z,99.99
2023-04-26T03:45:14.216Z,99.99
2023-04-26T03:46:14.737Z,99.99
2023-04-26T03:47:16.104Z,99.99
2023-04-26T03:48:15.652Z,99.99
2023-04-26T03:49:14.909Z,99.83
2023-04-26T03:50:15.078Z,99.98
2023-04-26T03:51:15.229Z,99.98
2023-04-26T03:52:15.345Z,99.99
2023-04-26T03:53:16.483Z,99.99
2023-04-26T03:54:15.708Z,99.99
2023-04-26T03:55:15.843Z,99.99
2023-04-26T03:56:16.649Z,99.99
2023-04-26T03:57:16.152Z,99.83
2023-04-26T03:58:17.204Z,99.62
2023-04-26T03:59:16.438Z,99.31
2023-04-26T04:00:16.608Z,99.62
2023-04-26T04:01:17.650Z,99.73
2023-04-26T04:02:17.051Z,99.31
2023-04-26T04:03:17.765Z,99.41
2023-04-26T04:04:17.583Z,99.35
2023-04-26T04:05:18.304Z,99.35
2023-04-26T04:06:19.164Z,99.77
2023-04-26T04:07:19.115Z,99.99
2023-04-26T04:08:18.655Z,99.93
2023-04-26T04:09:18.130Z,99.41
2023-04-26T04:10:18.300Z,99.31
2023-04-26T04:11:19.109Z,99.46
2023-04-26T04:12:18.623Z,99.66
2023-04-26T04:13:19.173Z,99.88
2023-04-26T04:14:18.918Z,99.66
2023-04-26T04:15:19.657Z,99.99
2023-04-26T04:16:19.752Z,99.99
2023-04-26T04:17:20.152Z,99.99
2023-04-26T04:18:20.612Z,99.99
2023-04-26T04:19:20.026Z,99.99
2023-04-26T04:20:20.109Z,99.99
2023-04-26T04:21:20.269Z,99.99
2023-04-26T04:22:20.663Z,99.83
2023-04-26T04:23:21.152Z,99.73
2023-04-26T04:24:22.112Z,99.62
2023-04-26T04:25:21.605Z,99.62
2023-04-26T04:26:21.229Z,99.83
2023-04-26T04:27:22.393Z,99.52
2023-04-26T04:28:21.519Z,99.83
2023-04-26T04:29:22.151Z,99.20
2023-04-26T04:30:21.790Z,99.41
2023-04-26T04:31:22.778Z,99.62
2023-04-26T04:32:22.679Z,99.31
2023-04-26T04:33:22.321Z,99.31
2023-04-26T04:34:23.164Z,99.62
2023-04-26T04:35:23.611Z,99.93
2023-04-26T04:36:22.829Z,99.83
2023-04-26T04:37:22.957Z,99.62
2023-04-26T04:38:23.118Z,99.31
2023-04-26T04:39:24.112Z,99.83
2023-04-26T04:40:23.459Z,99.31
2023-04-26T04:41:23.654Z,99.52
2023-04-26T04:42:24.610Z,99.89
2023-04-26T04:43:24.669Z,99.99
2023-04-26T04:44:24.674Z,99.37
2023-04-26T04:45:26.123Z,99.74
2023-04-26T04:46:24.524Z,99.74
2023-04-26T04:47:25.121Z,99.43
2023-04-26T04:48:25.618Z,99.79
2023-04-26T04:49:25.607Z,99.63
2023-04-26T04:50:26.622Z,99.53
2023-04-26T04:51:26.114Z,99.11
2023-04-26T04:52:25.461Z,99.53
2023-04-26T04:53:25.624Z,99.53
2023-04-26T04:54:25.753Z,99.22
2023-04-26T04:55:25.874Z,99.38
2023-04-26T04:56:26.017Z,99.53
2023-04-26T04:57:26.649Z,99.27
2023-04-26T04:58:28.131Z,99.17
2023-04-26T04:59:28.036Z,99.27
2023-04-26T05:00:26.742Z,99.17
2023-04-26T05:01:26.929Z,99.13
2023-04-26T05:02:27.310Z,99.13
2023-04-26T05:03:28.240Z,99.54
2023-04-26T05:04:27.531Z,99.44
2023-04-26T05:05:27.456Z,99.44
2023-04-26T05:06:28.167Z,99.13
2023-04-26T05:07:29.092Z,98.97
2023-04-26T05:08:29.616Z,98.97
2023-04-26T05:09:29.161Z,99.29
2023-04-26T05:10:29.158Z,98.41
2023-04-26T05:11:28.615Z,97.83
2023-04-26T05:12:29.660Z,98.46
2023-04-26T05:13:30.640Z,98.26
2023-04-26T05:14:30.648Z,98.32
2023-04-26T05:15:30.208Z,97.61
2023-04-26T05:16:29.388Z,96.83
2023-04-26T05:17:30.221Z,95.34
2023-04-26T05:18:29.672Z,93.18
2023-04-26T05:19:29.847Z,93.49
2023-04-26T05:20:30.673Z,92.61
2023-04-26T05:21:30.162Z,90.91
2023-04-26T05:22:30.331Z,90.25
2023-04-26T05:23:32.128Z,87.99
2023-04-26T05:24:31.633Z,87.91
2023-04-26T05:25:31.526Z,86.21
2023-04-26T05:26:31.048Z,85.41
2023-04-26T05:27:32.126Z,83.51
2023-04-26T05:28:32.161Z,83.31
2023-04-26T05:29:31.543Z,82.51
2023-04-26T05:30:31.780Z,81.03
2023-04-26T05:31:31.999Z,80.10
2023-04-26T05:32:32.073Z,78.52
2023-04-26T05:33:33.250Z,78.93
2023-04-26T05:34:32.566Z,80.10
2023-04-26T05:35:32.556Z,80.34
2023-04-26T05:36:32.814Z,80.86
2023-04-26T05:37:32.983Z,80.55
2023-04-26T05:38:34.622Z,81.07
2023-04-26T05:39:34.164Z,80.96
2023-04-26T05:40:34.197Z,80.86
2023-04-26T05:41:34.160Z,81.21
2023-04-26T05:42:34.182Z,82.45
2023-04-26T05:43:34.677Z,81.48
2023-04-26T05:44:34.132Z,80.68
2023-04-26T05:45:35.426Z,79.82
2023-04-26T05:46:34.590Z,80.09
2023-04-26T05:47:34.773Z,78.44
2023-04-26T05:48:34.931Z,78.51
2023-04-26T05:49:35.666Z,77.58
2023-04-26T05:50:38.820Z,77.03
2023-04-26T05:51:35.493Z,78.06
2023-04-26T05:52:35.623Z,77.20
2023-04-26T05:53:35.799Z,75.08
2023-04-26T05:54:35.940Z,74.22
2023-04-26T05:55:37.129Z,73.78
2023-04-26T05:56:36.674Z,72.61
2023-04-26T05:57:37.196Z,71.80
2023-04-26T05:58:37.195Z,72.31
2023-04-26T05:59:37.175Z,72.31
2023-04-26T06:00:37.093Z,72.92
2023-04-26T06:01:37.260Z,72.78
2023-04-26T06:02:37.518Z,73.09
2023-04-26T06:03:37.906Z,75.25
2023-04-26T06:04:38.008Z,76.14
2023-04-26T06:05:38.711Z,74.53
2023-04-26T06:06:38.666Z,74.40
2023-04-26T06:07:38.286Z,73.71
2023-04-26T06:08:39.173Z,73.16
2023-04-26T06:09:38.677Z,72.61
2023-04-26T06:10:39.674Z,73.40
2023-04-26T06:11:38.988Z,74.91
2023-04-26T06:12:39.632Z,76.70
2023-04-26T06:13:39.242Z,78.38
2023-04-26T06:14:40.380Z,80.00
2023-04-26T06:15:40.192Z,80.00
2023-04-26T06:16:41.164Z,80.90
2023-04-26T06:17:40.650Z,81.51
2023-04-26T06:18:40.218Z,82.14
2023-04-26T06:19:41.169Z,82.34
2023-04-26T06:20:40.557Z,82.75
2023-04-26T06:21:41.197Z,83.27
2023-04-26T06:22:41.670Z,83.31
2023-04-26T06:23:41.185Z,83.68
2023-04-26T06:24:41.345Z,83.06
2023-04-26T06:25:41.514Z,82.86
2023-04-26T06:26:42.640Z,82.92
2023-04-26T06:27:43.639Z,82.82
2023-04-26T06:28:42.678Z,82.51
2023-04-26T06:29:42.300Z,83.23
2023-04-26T06:30:42.466Z,81.89
2023-04-26T06:31:43.195Z,82.40
2023-04-26T06:32:42.896Z,82.20
2023-04-26T06:33:42.971Z,82.65
2023-04-26T06:34:43.217Z,82.40
2023-04-26T06:35:43.240Z,82.47
2023-04-26T06:36:44.184Z,82.47
2023-04-26T06:37:43.578Z,82.33
2023-04-26T06:38:44.683Z,81.03
2023-04-26T06:39:45.137Z,82.23
2023-04-26T06:40:44.121Z,80.79
2023-04-26T06:41:45.295Z,80.37
2023-04-26T06:42:45.202Z,80.02
2023-04-26T06:43:44.596Z,80.81
2023-04-26T06:44:45.535Z,79.23
2023-04-26T06:45:45.217Z,78.47
2023-04-26T06:46:45.759Z,77.96
2023-04-26T06:47:45.365Z,78.06
2023-04-26T06:48:46.148Z,77.75
2023-04-26T06:49:45.694Z,77.31
2023-04-26T06:50:46.378Z,75.90
2023-04-26T06:51:46.684Z,77.14
2023-04-26T06:52:46.650Z,77.45
2023-04-26T06:53:46.340Z,77.72
2023-04-26T06:54:56.594Z,76.62
2023-04-26T06:55:48.730Z,75.90
2023-04-26T06:56:46.950Z,76.62
2023-04-26T06:57:47.221Z,76.83
2023-04-26T06:58:49.652Z,75.80
2023-04-26T06:59:50.054Z,76.69
2023-04-26T07:00:48.535Z,75.76
2023-04-26T07:01:48.477Z,76.14
2023-04-26T07:02:48.087Z,74.95
2023-04-26T07:03:48.186Z,75.15
2023-04-26T07:04:48.554Z,75.32
2023-04-26T07:05:48.419Z,74.98
2023-04-26T07:06:49.231Z,72.89
2023-04-26T07:07:48.701Z,73.13
2023-04-26T07:08:48.855Z,71.86
2023-04-26T07:09:49.541Z,70.81
2023-04-26T07:10:49.141Z,69.75
2023-04-26T07:11:49.269Z,70.47
2023-04-26T07:12:50.162Z,70.09
2023-04-26T07:13:50.117Z,69.65
2023-04-26T07:14:50.722Z,67.71
2023-04-26T07:15:50.723Z,67.24
2023-04-26T07:16:50.786Z,65.84
2023-04-26T07:17:50.148Z,65.34
2023-04-26T07:18:51.153Z,63.85
2023-04-26T07:19:50.492Z,64.01
2023-04-26T07:20:50.597Z,64.24
2023-04-26T07:21:50.827Z,65.60
2023-04-26T07:22:50.948Z,66.69
2023-04-26T07:23:51.413Z,66.69
2023-04-26T07:24:52.195Z,67.74
2023-04-26T07:25:51.549Z,67.94
2023-04-26T07:26:51.687Z,68.18
2023-04-26T07:27:51.838Z,67.29
2023-04-26T07:28:52.713Z,69.17
2023-04-26T07:29:53.170Z,69.68
2023-04-26T07:30:52.415Z,69.68
2023-04-26T07:31:52.595Z,70.94
2023-04-26T07:32:53.924Z,71.66
2023-04-26T07:33:54.133Z,68.07
2023-04-26T07:34:53.167Z,70.32
2023-04-26T07:35:53.319Z,70.64
2023-04-26T07:36:53.468Z,70.32
2023-04-26T07:37:53.645Z,70.40
2023-04-26T07:38:53.811Z,68.96
2023-04-26T07:39:54.685Z,67.73
2023-04-26T07:40:54.174Z,69.85
2023-04-26T07:41:54.713Z,68.52
2023-04-26T07:42:55.202Z,67.52
2023-04-26T07:43:55.677Z,68.27
2023-04-26T07:44:54.794Z,67.76
2023-04-26T07:45:55.734Z,66.83
2023-04-26T07:46:55.230Z,68.71
2023-04-26T07:47:55.424Z,69.87
2023-04-26T07:48:55.759Z,71.11
2023-04-26T07:49:57.671Z,70.18
2023-04-26T07:50:57.167Z,70.62
2023-04-26T07:51:56.038Z,70.56
2023-04-26T07:52:56.189Z,70.04
2023-04-26T07:53:56.378Z,70.07
2023-04-26T07:54:58.171Z,70.28
2023-04-26T07:55:56.665Z,70.90
2023-04-26T07:56:57.678Z,71.14
2023-04-26T07:57:57.144Z,71.34
2023-04-26T07:58:57.711Z,71.20
2023-04-26T07:59:57.351Z,71.31
2023-04-26T08:00:57.514Z,71.10
2023-04-26T08:01:58.596Z,71.37
2023-04-26T08:02:58.283Z,71.86
2023-04-26T08:04:00.048Z,69.33
2023-04-26T08:04:58.410Z,67.72
2023-04-26T08:05:58.347Z,67.86
2023-04-26T08:06:58.527Z,67.55
2023-04-26T08:07:58.659Z,67.27
2023-04-26T08:09:00.171Z,67.89
2023-04-26T08:10:00.063Z,67.20
2023-04-26T08:10:59.160Z,68.95
2023-04-26T08:11:59.403Z,68.85
2023-04-26T08:12:59.568Z,67.70
2023-04-26T08:14:00.719Z,64.92
2023-04-26T08:14:59.861Z,62.92
2023-04-26T08:16:00.711Z,62.20
2023-04-26T08:17:00.757Z,61.41
2023-04-26T08:18:00.446Z,60.08
2023-04-26T08:19:01.237Z,59.39
2023-04-26T08:20:01.281Z,59.78
2023-04-26T08:21:00.923Z,62.10
2023-04-26T08:22:01.713Z,62.81
2023-04-26T08:23:01.715Z,63.87
2023-04-26T08:24:01.364Z,64.51
2023-04-26T08:25:02.185Z,65.03
2023-04-26T08:26:01.675Z,66.93
2023-04-26T08:27:03.696Z,66.76
2023-04-26T08:28:01.960Z,66.35
2023-04-26T08:29:02.676Z,68.02
2023-04-26T08:30:02.307Z,68.37
2023-04-26T08:31:03.211Z,69.29
2023-04-26T08:32:04.204Z,70.45
2023-04-26T08:33:02.871Z,70.18
2023-04-26T08:34:03.037Z,69.35
2023-04-26T08:35:03.924Z,68.94
2023-04-26T08:36:03.297Z,70.18
2023-04-26T08:37:03.455Z,70.28
2023-04-26T08:38:03.622Z,71.20
2023-04-26T08:39:03.768Z,71.31
2023-04-26T08:40:03.904Z,71.10
2023-04-26T08:41:05.742Z,70.18
2023-04-26T08:42:04.211Z,71.07
2023-04-26T08:43:04.349Z,70.76
2023-04-26T08:44:04.508Z,69.42
2023-04-26T08:45:04.661Z,70.14
2023-04-26T08:46:04.860Z,70.08
2023-04-26T08:47:05.022Z,70.04
2023-04-26T08:48:06.696Z,68.30
2023-04-26T08:49:05.342Z,67.05
2023-04-26T08:50:06.498Z,64.83
2023-04-26T08:51:06.276Z,61.60
2023-04-26T08:52:05.759Z,62.66
2023-04-26T08:53:06.570Z,60.05
2023-04-26T08:54:06.112Z,60.23
2023-04-26T08:55:06.254Z,60.10
2023-04-26T08:56:06.415Z,57.73
2023-04-26T08:57:08.072Z,57.55
2023-04-26T08:58:07.183Z,58.78
2023-04-26T08:59:06.817Z,59.56
2023-04-26T09:00:07.011Z,56.43
2023-04-26T09:01:07.163Z,56.38
2023-04-26T09:02:07.482Z,56.74
2023-04-26T09:03:07.567Z,59.88
2023-04-26T09:04:08.370Z,59.09
2023-04-26T09:05:09.425Z,60.35
2023-04-26T09:06:08.044Z,60.17
2023-04-26T09:07:08.159Z,60.02
2023-04-26T09:08:09.074Z,60.07
2023-04-26T09:09:08.450Z,62.05
2023-04-26T09:10:08.751Z,62.90
2023-04-26T09:11:09.694Z,64.47
2023-04-26T09:12:08.938Z,66.42
2023-04-26T09:13:09.093Z,64.70
2023-04-26T09:14:10.082Z,65.12
2023-04-26T09:15:09.762Z,65.83
2023-04-26T09:16:09.667Z,65.53
2023-04-26T09:17:10.722Z,66.66
2023-04-26T09:18:11.008Z,66.55
2023-04-26T09:19:10.139Z,67.58
2023-04-26T09:20:10.748Z,67.30
2023-04-26T09:21:11.274Z,67.51
2023-04-26T09:22:11.236Z,67.41
2023-04-26T09:23:11.701Z,65.80
2023-04-26T09:24:11.057Z,65.69
2023-04-26T09:25:11.217Z,66.51
2023-04-26T09:26:11.776Z,66.51
2023-04-26T09:27:11.546Z,66.72
2023-04-26T09:28:12.235Z,66.79
2023-04-26T09:29:11.865Z,65.69
2023-04-26T09:30:12.700Z,65.77
2023-04-26T09:31:12.276Z,67.10
2023-04-26T09:32:12.338Z,65.83
2023-04-26T09:33:14.722Z,64.94
2023-04-26T09:34:12.729Z,67.17
2023-04-26T09:35:12.897Z,65.83
2023-04-26T09:36:13.049Z,66.86
2023-04-26T09:37:13.240Z,64.88
2023-04-26T09:38:14.008Z,65.50
2023-04-26T09:39:13.534Z,64.29
2023-04-26T09:40:13.696Z,63.34
2023-04-26T09:41:14.698Z,65.88
2023-04-26T09:42:14.084Z,63.31
2023-04-26T09:43:14.296Z,64.16
2023-04-26T09:44:16.200Z,64.47
2023-04-26T09:45:14.556Z,63.51
2023-04-26T09:46:15.232Z,62.41
2023-04-26T09:47:15.698Z,62.14
2023-04-26T09:48:15.134Z,63.78
2023-04-26T09:49:15.316Z,61.93
2023-04-26T09:50:15.486Z,62.34
2023-04-26T09:51:15.660Z,63.27
2023-04-26T09:52:16.744Z,63.17
2023-04-26T09:53:16.034Z,63.91
2023-04-26T09:54:16.768Z,64.29
2023-04-26T09:55:31.122Z,64.09
2023-04-26T09:56:19.234Z,62.48
2023-04-26T09:57:17.713Z,63.20
2023-04-26T09:58:16.934Z,63.81
2023-04-26T09:59:18.200Z,64.01
2023-04-26T10:00:17.344Z,64.46
2023-04-26T10:01:18.308Z,63.84
2023-04-26T10:02:17.633Z,64.46
2023-04-26T10:03:17.913Z,64.87
2023-04-26T10:04:18.129Z,65.08
2023-04-26T10:05:18.235Z,65.11
2023-04-26T10:06:18.408Z,65.59
2023-04-26T10:07:19.745Z,65.62
2023-04-26T10:08:19.732Z,66.00
2023-04-26T10:09:18.901Z,66.20
2023-04-26T10:10:19.146Z,67.13
2023-04-26T10:11:20.713Z,66.00
2023-04-26T10:12:19.780Z,65.89
2023-04-26T10:13:21.204Z,65.89
2023-04-26T10:14:19.809Z,66.51
2023-04-26T10:15:19.967Z,66.20
2023-04-26T10:16:20.206Z,64.76
2023-04-26T10:17:20.814Z,65.17
2023-04-26T10:18:20.536Z,66.00
2023-04-26T10:19:20.678Z,64.36
2023-04-26T10:20:20.837Z,64.36
2023-04-26T10:21:21.254Z,64.56
2023-04-26T10:22:21.237Z,66.03
2023-04-26T10:23:22.768Z,65.08
2023-04-26T10:24:21.518Z,64.56
2023-04-26T10:25:22.245Z,65.80
2023-04-26T10:26:21.896Z,64.76
2023-04-26T10:27:22.057Z,65.59
2023-04-26T10:28:22.213Z,64.66
2023-04-26T10:29:22.436Z,63.53
2023-04-26T10:30:22.580Z,64.22
2023-04-26T10:31:24.213Z,64.70
2023-04-26T10:32:22.972Z,62.14
2023-04-26T10:33:24.807Z,61.93
2023-04-26T10:34:23.330Z,63.57
2023-04-26T10:35:23.472Z,63.44
2023-04-26T10:36:24.249Z,62.31
2023-04-26T10:37:23.774Z,60.05
2023-04-26T10:38:23.943Z,60.80
2023-04-26T10:39:24.731Z,62.21
2023-04-26T10:40:24.265Z,62.11
2023-04-26T10:41:24.424Z,64.23
2023-04-26T10:42:25.906Z,61.98
2023-04-26T10:43:26.134Z,61.57
2023-04-26T10:44:25.081Z,62.73
2023-04-26T10:45:27.228Z,62.83
2023-04-26T10:46:27.236Z,61.80
2023-04-26T10:47:25.686Z,61.70
2023-04-26T10:48:26.275Z,61.90
2023-04-26T10:49:26.713Z,61.42
2023-04-26T10:50:27.260Z,62.75
2023-04-26T10:51:28.219Z,61.21
2023-04-26T10:52:26.584Z,60.49
2023-04-26T10:53:28.727Z,59.70
2023-04-26T10:54:28.860Z,60.70
2023-04-26T10:55:27.127Z,62.04
2023-04-26T10:56:27.324Z,62.04
2023-04-26T10:57:27.511Z,62.55
2023-04-26T10:58:27.732Z,62.14
2023-04-26T10:59:43.412Z,63.27
2023-04-26T11:00:32.040Z,62.14
2023-04-26T11:01:29.259Z,61.86
2023-04-26T11:02:28.485Z,63.09
2023-04-26T11:03:28.615Z,62.45
2023-04-26T11:04:28.777Z,60.49
2023-04-26T11:05:28.841Z,63.13
2023-04-26T11:06:29.785Z,62.87
2023-04-26T11:07:29.776Z,61.30
2023-04-26T11:08:29.398Z,61.79
2023-04-26T11:09:29.567Z,59.61
2023-04-26T11:10:30.293Z,60.60
2023-04-26T11:11:30.627Z,59.35
2023-04-26T11:12:30.108Z,59.83
2023-04-26T11:13:30.251Z,59.42
2023-04-26T11:14:30.400Z,57.28
2023-04-26T11:15:31.269Z,56.87
2023-04-26T11:16:30.706Z,55.18
2023-04-26T11:17:30.909Z,56.41
2023-04-26T11:18:31.086Z,58.40
2023-04-26T11:19:31.249Z,58.40
2023-04-26T11:20:32.289Z,59.81
2023-04-26T11:21:32.228Z,59.53
2023-04-26T11:22:32.732Z,59.74
2023-04-26T11:23:32.775Z,59.74
2023-04-26T11:24:34.230Z,59.43
2023-04-26T11:25:32.791Z,58.23
2023-04-26T11:26:33.289Z,59.87
2023-04-26T11:27:32.667Z,58.84
2023-04-26T11:28:34.256Z,59.36
2023-04-26T11:29:35.228Z,60.00
2023-04-26T11:30:33.220Z,59.87
2023-04-26T11:31:33.406Z,58.26
2023-04-26T11:32:33.638Z,60.05
2023-04-26T11:33:34.855Z,59.66
2023-04-26T11:34:34.799Z,60.15
2023-04-26T11:35:34.171Z,61.20
2023-04-26T11:36:34.288Z,63.02
2023-04-26T11:37:35.273Z,60.31
2023-04-26T11:38:35.279Z,62.43
2023-04-26T11:39:34.930Z,62.33
2023-04-26T11:40:35.782Z,62.95
2023-04-26T11:41:35.257Z,62.02
2023-04-26T11:42:35.388Z,61.92
2023-04-26T11:43:35.661Z,61.07
2023-04-26T11:44:35.723Z,59.74
2023-04-26T11:45:36.741Z,60.28
2023-04-26T11:46:36.824Z,59.77
2023-04-26T11:47:36.351Z,61.71
2023-04-26T11:48:36.512Z,62.84
2023-04-26T11:49:36.664Z,59.66
2023-04-26T11:50:37.775Z,59.97
2023-04-26T11:51:37.731Z,60.86
2023-04-26T11:52:37.218Z,58.38
2023-04-26T11:53:37.342Z,61.83
2023-04-26T11:54:37.496Z,59.86
2023-04-26T11:55:39.278Z,60.03
2023-04-26T11:56:39.234Z,60.35
2023-04-26T11:57:38.747Z,61.75
2023-04-26T11:58:38.219Z,60.11
2023-04-26T11:59:38.469Z,59.22
2023-04-26T12:00:38.623Z,59.63
2023-04-26T12:01:38.818Z,60.85
2023-04-26T12:02:38.999Z,61.44
2023-04-26T12:03:39.949Z,59.80
2023-04-26T12:04:39.464Z,59.80
2023-04-26T12:05:41.742Z,60.08
2023-04-26T12:06:39.582Z,59.03
2023-04-26T12:07:40.277Z,60.26
2023-04-26T12:08:40.300Z,59.44
2023-04-26T12:09:40.308Z,57.40
2023-04-26T12:10:40.200Z,57.84
2023-04-26T12:11:40.422Z,58.04
2023-04-26T12:12:41.282Z,58.14
2023-04-26T12:13:40.774Z,58.75
2023-04-26T12:14:41.305Z,59.88
2023-04-26T12:15:41.805Z,56.33
2023-04-26T12:16:41.425Z,59.60
2023-04-26T12:17:41.574Z,57.15
2023-04-26T12:18:41.638Z,58.20
2023-04-26T12:19:41.807Z,59.06
2023-04-26T12:20:43.750Z,56.38
2023-04-26T12:21:42.110Z,56.25
2023-04-26T12:22:42.274Z,54.54
2023-04-26T12:23:42.436Z,59.39
2023-04-26T12:24:44.741Z,59.03
2023-04-26T12:25:43.747Z,55.76
2023-04-26T12:26:43.015Z,53.92
2023-04-26T12:27:43.200Z,55.99
2023-04-26T12:28:43.388Z,54.97
2023-04-26T12:29:43.793Z,55.00
2023-04-26T12:30:44.751Z,53.47
2023-04-26T12:31:43.914Z,54.18
2023-04-26T12:32:44.167Z,55.51
2023-04-26T12:33:44.796Z,55.28
2023-04-26T12:34:44.466Z,56.37
2023-04-26T12:35:45.241Z,55.33
2023-04-26T12:36:46.761Z,53.50
2023-04-26T12:37:45.036Z,53.31
2023-04-26T12:38:45.220Z,50.79
2023-04-26T12:39:45.381Z,51.12
2023-04-26T12:40:45.545Z,53.01
2023-04-26T12:41:45.717Z,53.11
2023-04-26T12:42:45.913Z,52.62
2023-04-26T12:43:46.090Z,53.67
2023-04-26T12:44:46.749Z,54.28
2023-04-26T12:45:46.405Z,56.33
2023-04-26T12:46:46.689Z,54.28
2023-04-26T12:47:47.794Z,55.13
2023-04-26T12:48:48.641Z,55.64
2023-04-26T12:49:47.124Z,54.51
2023-04-26T12:50:51.099Z,54.54
2023-04-26T12:51:48.314Z,56.61
2023-04-26T12:52:47.571Z,59.17
2023-04-26T12:53:47.721Z,59.35
2023-04-26T12:54:47.872Z,59.55